createdAt,value
2023-01-29T00:00:41.822Z,101864.06
2023-01-29T00:03:08.372Z,101853.50
2023-01-29T00:05:34.999Z,101858.94
2023-01-29T00:08:01.912Z,101856.94
2023-01-29T00:10:28.482Z,101859.78
2023-01-29T00:12:56.324Z,101851.75
2023-01-29T00:15:22.894Z,101861.44
2023-01-29T00:17:49.446Z,101862.28
2023-01-29T00:20:16.611Z,101861.53
2023-01-29T00:22:43.318Z,101870.59
2023-01-29T00:25:09.865Z,101865.22
2023-01-29T00:27:36.531Z,101863.84
2023-01-29T00:30:04.911Z,101858.88
2023-01-29T00:32:32.399Z,101854.63
2023-01-29T00:34:58.895Z,101860.84
2023-01-29T00:37:25.474Z,101853.50
2023-01-29T00:39:51.995Z,101859.03
2023-01-29T00:42:18.488Z,101848.31
2023-01-29T00:44:44.971Z,101846.59
2023-01-29T00:47:12.805Z,101854.09
2023-01-29T00:49:39.322Z,101851.75
2023-01-29T00:52:05.809Z,101852.72
2023-01-29T00:54:33.281Z,101856.50
2023-01-29T00:56:59.876Z,101861.06
2023-01-29T00:59:26.496Z,101870.84
2023-01-29T01:01:53.209Z,101863.69
2023-01-29T01:04:21.031Z,101857.53
2023-01-29T01:06:47.535Z,101860.22
2023-01-29T01:09:14.117Z,101868.16
2023-01-29T01:11:40.690Z,101859.97
2023-01-29T01:14:07.299Z,101860.91
2023-01-29T01:16:33.870Z,101866.19
2023-01-29T01:19:00.563Z,101879.63
2023-01-29T01:21:28.441Z,101879.63
2023-01-29T01:23:54.985Z,101891.28
2023-01-29T01:26:21.634Z,101882.47
2023-01-29T01:28:48.106Z,101870.06
2023-01-29T01:31:14.890Z,101859.28
2023-01-29T01:33:41.861Z,101847.78
2023-01-29T01:36:08.498Z,101841.59
2023-01-29T01:38:36.567Z,101839.66
2023-01-29T01:41:03.168Z,101834.31
2023-01-29T01:43:47.414Z,101834.50
2023-01-29T01:46:13.774Z,101835.53
2023-01-29T01:48:40.891Z,101827.34
2023-01-29T01:51:07.591Z,101821.16
2023-01-29T01:53:41.114Z,101824.75
2023-01-29T01:56:10.258Z,101823.72
2023-01-29T01:58:40.704Z,101814.13
2023-01-29T02:01:08.763Z,101818.47
2023-01-29T02:03:40.971Z,101816.72
2023-01-29T02:06:09.020Z,101829.34
2023-01-29T02:08:45.304Z,101823.88
2023-01-29T02:11:11.970Z,101820.34
2023-01-29T02:13:38.504Z,101820.41
2023-01-29T02:16:05.436Z,101830.09
2023-01-29T02:18:32.027Z,101819.72
2023-01-29T02:21:18.047Z,101823.09
2023-01-29T02:24:07.758Z,101818.47
2023-01-29T02:26:44.909Z,101816.56
2023-01-29T02:29:19.877Z,101815.97
2023-01-29T02:31:55.478Z,101813.28
2023-01-29T02:34:31.139Z,101814.91
2023-01-29T02:37:06.409Z,101809.81
2023-01-29T02:39:37.718Z,101817.03
2023-01-29T02:42:15.431Z,101813.13
2023-01-29T02:44:48.304Z,101807.94
2023-01-29T02:47:21.793Z,101812.59
2023-01-29T02:49:52.668Z,101804.72
2023-01-29T02:52:23.283Z,101804.56
2023-01-29T02:54:55.513Z,101807.31
2023-01-29T02:57:26.584Z,101809.13
2023-01-29T02:59:58.713Z,101800.13
2023-01-29T03:02:32.257Z,101798.41
2023-01-29T03:05:03.025Z,101803.06
2023-01-29T03:07:35.359Z,101795.84
2023-01-29T03:10:03.283Z,101790.66
2023-01-29T03:12:33.557Z,101798.31
2023-01-29T03:15:06.859Z,101805.84
2023-01-29T03:17:40.060Z,101802.91
2023-01-29T03:20:11.914Z,101806.53
2023-01-29T03:22:41.024Z,101803.78
2023-01-29T03:25:10.087Z,101806.34
2023-01-29T03:27:41.457Z,101810.13
2023-01-29T03:30:12.597Z,101812.81
2023-01-29T03:32:39.253Z,101805.59
2023-01-29T03:35:09.769Z,101801.19
2023-01-29T03:37:40.518Z,101798.59
2023-01-29T03:40:08.776Z,101798.59
2023-01-29T03:42:52.473Z,101800.50
2023-01-29T03:45:27.769Z,101798.59
2023-01-29T03:48:04.383Z,101796.44
2023-01-29T03:50:38.327Z,101797.72
2023-01-29T03:53:08.089Z,101797.84
2023-01-29T03:55:41.462Z,101794.25
2023-01-29T03:58:21.283Z,101792.50
2023-01-29T04:00:56.001Z,101799.53
2023-01-29T04:03:28.873Z,101796.88
2023-01-29T04:06:00.116Z,101799.59
2023-01-29T04:08:30.434Z,101790.78
2023-01-29T04:11:01.236Z,101798.72
2023-01-29T04:13:31.547Z,101789.69
2023-01-29T04:16:01.385Z,101789.13
2023-01-29T04:18:28.056Z,101796.13
2023-01-29T04:20:55.182Z,101789.94
2023-01-29T04:23:23.559Z,101785.34
2023-01-29T04:26:00.261Z,101779.88
2023-01-29T04:28:42.889Z,101771.13
2023-01-29T04:31:12.296Z,101774.63
2023-01-29T04:33:51.272Z,101778.22
2023-01-29T04:36:28.533Z,101778.28
2023-01-29T04:39:07.284Z,101769.47
2023-01-29T04:41:39.303Z,101780.34
2023-01-29T04:44:11.232Z,101780.25
2023-01-29T04:46:49.442Z,101780.25
2023-01-29T04:49:29.761Z,101789.31
2023-01-29T04:52:06.984Z,101792.84
2023-01-29T04:54:47.852Z,101789.22
2023-01-29T04:57:21.374Z,101784.75
2023-01-29T04:59:54.752Z,101790.09
2023-01-29T05:02:26.583Z,101790.78
2023-01-29T05:04:54.500Z,101793.63
2023-01-29T05:07:24.329Z,101790.16
2023-01-29T05:09:51.449Z,101791.97
2023-01-29T05:12:18.299Z,101787.47
2023-01-29T05:14:47.239Z,101784.13
2023-01-29T05:17:18.393Z,101785.75
2023-01-29T05:19:47.419Z,101791.97
2023-01-29T05:22:17.570Z,101781.28
2023-01-29T05:24:44.310Z,101782.06
2023-01-29T05:27:17.033Z,101783.09
2023-01-29T05:29:46.075Z,101789.22
2023-01-29T05:32:13.331Z,101791.97
2023-01-29T05:34:39.831Z,101787.16
2023-01-29T05:37:08.965Z,101789.22
2023-01-29T05:39:35.654Z,101789.41
2023-01-29T05:42:02.477Z,101789.41
2023-01-29T05:44:28.980Z,101779.72
2023-01-29T05:46:55.537Z,101778.00
2023-01-29T05:49:22.137Z,101777.06
2023-01-29T05:51:48.639Z,101775.94
2023-01-29T05:54:16.546Z,101775.06
2023-01-29T05:56:43.255Z,101779.66
2023-01-29T05:59:09.823Z,101776.09
2023-01-29T06:01:37.252Z,101777.16
2023-01-29T06:04:03.881Z,101773.53
2023-01-29T06:06:30.427Z,101781.44
2023-01-29T06:08:56.929Z,101778.88
2023-01-29T06:11:24.978Z,101785.06
2023-01-29T06:13:51.456Z,101779.88
2023-01-29T06:16:18.085Z,101778.00
2023-01-29T06:18:44.637Z,101779.03
2023-01-29T06:21:13.423Z,101775.41
2023-01-29T06:23:40.084Z,101778.69
2023-01-29T06:26:10.347Z,101772.56
2023-01-29T06:28:38.593Z,101769.81
2023-01-29T06:31:37.390Z,101769.03
2023-01-29T06:33:53.324Z,101759.34
2023-01-29T06:36:19.857Z,101769.13
2023-01-29T06:38:46.388Z,101769.03
2023-01-29T06:41:16.496Z,101763.84
2023-01-29T06:43:45.703Z,101771.00
2023-01-29T06:46:12.251Z,101765.59
2023-01-29T06:48:38.793Z,101764.69
2023-01-29T06:51:07.009Z,101775.41
2023-01-29T06:53:34.769Z,101777.31
2023-01-29T06:56:01.307Z,101775.25
2023-01-29T06:58:27.843Z,101775.41
2023-01-29T07:01:03.360Z,101780.91
2023-01-29T07:03:29.892Z,101781.88
2023-01-29T07:05:56.399Z,101782.66
2023-01-29T07:08:22.901Z,101779.97
2023-01-29T07:10:50.159Z,101783.59
2023-01-29T07:13:16.888Z,101768.44
2023-01-29T07:15:43.537Z,101773.78
2023-01-29T07:18:11.395Z,101775.56
2023-01-29T07:20:38.947Z,101772.03
2023-01-29T07:23:05.750Z,101771.97
2023-01-29T07:25:33.662Z,101775.75
2023-01-29T07:28:01.082Z,101771.16
2023-01-29T07:30:28.085Z,101775.75
2023-01-29T07:32:54.814Z,101773.84
2023-01-29T07:35:22.600Z,101774.78
2023-01-29T07:37:49.825Z,101779.28
2023-01-29T07:40:16.683Z,101778.34
2023-01-29T07:42:43.392Z,101779.19
2023-01-29T07:45:11.507Z,101782.81
2023-01-29T07:47:38.169Z,101783.69
2023-01-29T07:50:05.798Z,101781.81
2023-01-29T07:52:34.044Z,101782.97
2023-01-29T07:55:00.583Z,101782.03
2023-01-29T07:57:27.078Z,101792.66
2023-01-29T07:59:53.592Z,101788.16
2023-01-29T08:02:20.148Z,101789.13
2023-01-29T08:04:46.702Z,101790.03
2023-01-29T08:07:13.194Z,101793.50
2023-01-29T08:09:41.014Z,101785.66
2023-01-29T08:12:07.575Z,101785.50
2023-01-29T08:14:34.104Z,101781.00
2023-01-29T08:17:00.633Z,101777.31
2023-01-29T08:19:27.266Z,101776.34
2023-01-29T08:21:53.791Z,101772.97
2023-01-29T08:24:21.051Z,101776.84
2023-01-29T08:26:48.905Z,101782.03
2023-01-29T08:29:15.429Z,101784.69
2023-01-29T08:31:42.122Z,101783.84
2023-01-29T08:34:08.619Z,101782.19
2023-01-29T08:36:35.664Z,101788.16
2023-01-29T08:39:02.354Z,101783.78
2023-01-29T08:41:28.908Z,101777.78
2023-01-29T08:43:56.728Z,101779.50
2023-01-29T08:46:23.311Z,101783.84
2023-01-29T08:48:49.907Z,101781.25
2023-01-29T08:51:16.529Z,101775.06
2023-01-29T08:53:43.080Z,101778.59
2023-01-29T08:56:09.659Z,101782.97
2023-01-29T08:58:36.208Z,101775.91
2023-01-29T09:01:08.222Z,101775.97
2023-01-29T09:03:35.479Z,101775.13
2023-01-29T09:06:02.249Z,101780.56
2023-01-29T09:08:28.867Z,101777.03
2023-01-29T09:10:58.202Z,101787.47
2023-01-29T09:13:24.707Z,101779.72
2023-01-29T09:15:51.240Z,101780.47
2023-01-29T09:18:19.144Z,101793.84
2023-01-29T09:20:45.646Z,101777.78
2023-01-29T09:23:12.304Z,101779.72
2023-01-29T09:25:38.890Z,101770.72
2023-01-29T09:28:05.724Z,101778.75
2023-01-29T09:30:32.364Z,101774.41
2023-01-29T09:33:00.334Z,101775.06
2023-01-29T09:35:28.134Z,101779.50
2023-01-29T09:37:54.655Z,101777.78
2023-01-29T09:40:25.938Z,101776.78
2023-01-29T09:42:56.565Z,101770.56
2023-01-29T09:45:26.474Z,101769.72
2023-01-29T09:47:55.912Z,101765.38
2023-01-29T09:50:29.891Z,101772.44
2023-01-29T09:52:58.680Z,101775.97
2023-01-29T09:55:28.616Z,101782.19
2023-01-29T09:57:59.094Z,101788.50
2023-01-29T10:00:32.857Z,101798.22
2023-01-29T10:03:16.225Z,101791.97
2023-01-29T10:05:58.015Z,101785.06
2023-01-29T10:08:42.397Z,101778.66
2023-01-29T10:11:23.364Z,101783.13
2023-01-29T10:14:01.378Z,101793.06
2023-01-29T10:16:38.203Z,101779.59
2023-01-29T10:19:18.256Z,101780.41
2023-01-29T10:21:59.100Z,101778.81
2023-01-29T10:24:36.552Z,101777.78
2023-01-29T10:27:05.860Z,101783.25
2023-01-29T10:29:34.062Z,101785.91
2023-01-29T10:32:02.643Z,101791.78
2023-01-29T10:34:35.110Z,101777.72
2023-01-29T10:37:13.196Z,101783.13
2023-01-29T10:39:39.750Z,101787.78
2023-01-29T10:42:19.533Z,101790.41
2023-01-29T10:44:59.578Z,101782.38
2023-01-29T10:47:46.962Z,101778.81
2023-01-29T10:50:22.618Z,101785.06
2023-01-29T10:53:09.804Z,101790.41
2023-01-29T10:55:46.652Z,101784.09
2023-01-29T10:58:22.025Z,101780.56
2023-01-29T11:00:49.227Z,101783.13
2023-01-29T11:03:27.461Z,101780.63
2023-01-29T11:06:02.686Z,101781.44
2023-01-29T11:08:37.245Z,101777.09
2023-01-29T11:11:07.768Z,101769.06
2023-01-29T11:13:40.283Z,101773.47
2023-01-29T11:16:09.037Z,101761.84
2023-01-29T11:18:51.089Z,101757.44
2023-01-29T11:21:17.647Z,101757.53
2023-01-29T11:23:45.624Z,101752.19
2023-01-29T11:26:16.764Z,101750.31
2023-01-29T11:28:45.173Z,101747.78
2023-01-29T11:31:19.128Z,101740.53
2023-01-29T11:33:45.896Z,101747.63
2023-01-29T11:36:29.366Z,101744.97
2023-01-29T11:39:14.915Z,101739.50
2023-01-29T11:41:43.772Z,101741.31
2023-01-29T11:44:20.079Z,101733.47
2023-01-29T11:46:47.494Z,101729.69
2023-01-29T11:49:27.421Z,101735.19
2023-01-29T11:51:56.011Z,101732.50
2023-01-29T11:54:27.960Z,101731.59
2023-01-29T11:56:55.685Z,101720.91
2023-01-29T11:59:39.469Z,101719.78
2023-01-29T12:02:18.806Z,101720.69
2023-01-29T12:04:46.461Z,101724.44
2023-01-29T12:07:15.887Z,101719.94
2023-01-29T12:09:49.483Z,101720.91
2023-01-29T12:12:26.336Z,101728.72
2023-01-29T12:15:04.953Z,101727.81
2023-01-29T12:17:36.275Z,101718.13
2023-01-29T12:20:11.993Z,101721.06
2023-01-29T12:22:46.736Z,101716.56
2023-01-29T12:25:23.136Z,101712.88
2023-01-29T12:27:59.317Z,101710.22
2023-01-29T12:30:31.451Z,101711.94
2023-01-29T12:33:04.829Z,101706.59
2023-01-29T12:35:35.122Z,101701.22
2023-01-29T12:38:04.340Z,101691.56
2023-01-29T12:40:40.178Z,101684.50
2023-01-29T12:43:15.232Z,101678.13
2023-01-29T12:45:43.614Z,101674.66
2023-01-29T12:48:14.243Z,101677.34
2023-01-29T12:50:41.083Z,101673.66
2023-01-29T12:53:19.856Z,101667.44
2023-01-29T12:55:51.174Z,101652.31
2023-01-29T12:58:23.933Z,101649.81
2023-01-29T13:00:54.576Z,101642.75
2023-01-29T13:03:25.440Z,101647.09
2023-01-29T13:05:55.200Z,101640.88
2023-01-29T13:08:29.056Z,101638.09
2023-01-29T13:11:00.384Z,101632.00
2023-01-29T13:13:31.526Z,101635.53
2023-01-29T13:15:59.430Z,101624.69
2023-01-29T13:18:39.907Z,101628.38
2023-01-29T13:21:11.947Z,101619.50
2023-01-29T13:23:44.008Z,101609.56
2023-01-29T13:26:14.011Z,101604.38
2023-01-29T13:28:44.827Z,101604.22
2023-01-29T13:31:14.842Z,101599.84
2023-01-29T13:33:42.913Z,101598.97
2023-01-29T13:36:19.955Z,101595.50
2023-01-29T13:38:54.160Z,101593.53
2023-01-29T13:41:32.588Z,101587.44
2023-01-29T13:43:59.366Z,101580.16
2023-01-29T13:46:26.093Z,101574.81
2023-01-29T13:48:53.073Z,101572.25
2023-01-29T13:51:22.666Z,101577.59
2023-01-29T13:53:56.678Z,101569.31
2023-01-29T13:56:42.567Z,101565.94
2023-01-29T13:59:22.765Z,101565.09
2023-01-29T14:02:00.920Z,101560.69
2023-01-29T14:04:29.846Z,101558.78
2023-01-29T14:06:57.794Z,101560.59
2023-01-29T14:09:47.267Z,101554.56
2023-01-29T14:12:36.286Z,101555.34
2023-01-29T14:15:15.265Z,101559.41
2023-01-29T14:17:59.406Z,101555.94
2023-01-29T14:20:43.159Z,101552.50
2023-01-29T14:23:23.645Z,101556.09
2023-01-29T14:25:50.523Z,101552.69
2023-01-29T14:28:23.351Z,101544.28
2023-01-29T14:30:51.129Z,101544.66
2023-01-29T14:33:26.703Z,101544.66
2023-01-29T14:35:55.799Z,101541.03
2023-01-29T14:38:26.161Z,101548.94
2023-01-29T14:41:04.361Z,101535.69
2023-01-29T14:43:32.298Z,101536.88
2023-01-29T14:46:40.052Z,101549.91
2023-01-29T14:49:08.261Z,101537.50
2023-01-29T14:51:38.271Z,101542.91
2023-01-29T14:54:14.866Z,101547.22
2023-01-29T14:56:49.831Z,101550.75
2023-01-29T14:59:21.846Z,101536.66
2023-01-29T15:01:52.944Z,101535.69
2023-01-29T15:04:25.626Z,101543.88
2023-01-29T15:06:59.311Z,101545.59
2023-01-29T15:09:36.819Z,101540.44
2023-01-29T15:12:13.509Z,101537.66
2023-01-29T15:14:47.602Z,101539.50
2023-01-29T15:17:22.913Z,101541.31
2023-01-29T15:19:49.588Z,101538.63
2023-01-29T15:22:17.741Z,101535.69
2023-01-29T15:24:46.157Z,101544.56
2023-01-29T15:27:16.609Z,101540.75
2023-01-29T15:29:48.530Z,101533.00
2023-01-29T15:32:22.032Z,101541.88
2023-01-29T15:34:49.420Z,101546.88
2023-01-29T15:37:25.797Z,101546.72
2023-01-29T15:39:53.214Z,101545.84
2023-01-29T15:42:19.786Z,101550.25
2023-01-29T15:44:47.665Z,101551.13
2023-01-29T15:47:15.390Z,101554.84
2023-01-29T15:49:42.335Z,101548.25
2023-01-29T15:52:20.358Z,101555.53
2023-01-29T15:54:47.396Z,101560.00
2023-01-29T15:57:22.493Z,101554.75
2023-01-29T15:59:52.207Z,101547.69
2023-01-29T16:02:25.680Z,101552.59
2023-01-29T16:04:53.064Z,101549.22
2023-01-29T16:07:19.667Z,101558.19
2023-01-29T16:09:46.525Z,101557.25
2023-01-29T16:12:14.382Z,101557.41
2023-01-29T16:14:41.675Z,101562.75
2023-01-29T16:17:24.067Z,101560.06
2023-01-29T16:19:58.617Z,101556.56
2023-01-29T16:22:28.933Z,101549.38
2023-01-29T16:24:55.598Z,101550.34
2023-01-29T16:27:24.986Z,101551.13
2023-01-29T16:29:51.873Z,101555.53
2023-01-29T16:32:21.441Z,101560.00
2023-01-29T16:34:49.205Z,101552.91
2023-01-29T16:37:21.828Z,101552.91
2023-01-29T16:39:49.840Z,101556.47
2023-01-29T16:42:23.062Z,101556.66
2023-01-29T16:44:52.320Z,101553.88
2023-01-29T16:47:26.702Z,101555.69
2023-01-29T16:49:55.189Z,101552.06
2023-01-29T16:52:24.866Z,101556.66
2023-01-29T16:54:58.352Z,101554.75
2023-01-29T16:57:27.325Z,101558.25
2023-01-29T16:59:56.872Z,101550.44
2023-01-29T17:02:27.459Z,101554.66
2023-01-29T17:04:58.515Z,101552.16
2023-01-29T17:07:25.714Z,101552.91
2023-01-29T17:09:56.217Z,101557.59
2023-01-29T17:12:26.140Z,101562.84
2023-01-29T17:14:54.252Z,101563.72
2023-01-29T17:17:20.760Z,101555.78
2023-01-29T17:19:48.633Z,101561.03
2023-01-29T17:22:15.169Z,101560.34
2023-01-29T17:24:41.912Z,101561.03
2023-01-29T17:27:16.903Z,101562.00
2023-01-29T17:29:43.483Z,101558.47
2023-01-29T17:32:10.075Z,101562.00
2023-01-29T17:34:36.789Z,101559.31
2023-01-29T17:37:04.688Z,101553.97
2023-01-29T17:39:31.770Z,101547.69
2023-01-29T17:41:58.781Z,101553.13
2023-01-29T17:44:25.438Z,101547.78
2023-01-29T17:46:52.073Z,101542.44
2023-01-29T17:49:22.973Z,101534.50
2023-01-29T17:51:50.141Z,101533.53
2023-01-29T17:54:19.203Z,101547.84
2023-01-29T17:56:45.925Z,101542.44
2023-01-29T17:59:14.492Z,101541.53
2023-01-29T18:01:41.271Z,101541.47
2023-01-29T18:04:08.206Z,101540.78
2023-01-29T18:06:34.970Z,101537.16
2023-01-29T18:09:01.906Z,101544.38
2023-01-29T18:11:30.259Z,101540.00
2023-01-29T18:13:57.552Z,101538.88
2023-01-29T18:16:24.859Z,101527.44
2023-01-29T18:18:52.268Z,101524.94
2023-01-29T18:21:18.877Z,101524.94
2023-01-29T18:23:45.390Z,101531.13
2023-01-29T18:26:16.609Z,101518.38
2023-01-29T18:28:44.447Z,101510.44
2023-01-29T18:31:13.165Z,101516.75
2023-01-29T18:33:40.518Z,101514.06
2023-01-29T18:36:08.059Z,101522.16
2023-01-29T18:38:34.634Z,101520.53
2023-01-29T18:41:05.089Z,101517.88
2023-01-29T18:43:31.815Z,101508.97
2023-01-29T18:45:59.779Z,101509.75
2023-01-29T18:48:26.394Z,101512.53
2023-01-29T18:50:52.925Z,101522.31
2023-01-29T18:53:19.414Z,101511.75
2023-01-29T18:55:54.369Z,101516.22
2023-01-29T18:58:26.804Z,101512.53
2023-01-29T19:01:03.090Z,101500.09
2023-01-29T19:03:29.659Z,101500.72
2023-01-29T19:06:00.557Z,101505.53
2023-01-29T19:08:27.070Z,101499.34
2023-01-29T19:10:53.548Z,101501.06
2023-01-29T19:13:20.083Z,101501.84
2023-01-29T19:15:46.752Z,101511.47
2023-01-29T19:18:15.162Z,101503.91
2023-01-29T19:20:41.697Z,101500.09
2023-01-29T19:23:08.526Z,101496.56
2023-01-29T19:25:37.152Z,101489.41
2023-01-29T19:28:03.698Z,101486.72
2023-01-29T19:30:30.296Z,101481.50
2023-01-29T19:32:56.804Z,101490.25
2023-01-29T19:35:24.747Z,101489.56
2023-01-29T19:37:51.294Z,101499.22
2023-01-29T19:40:18.277Z,101502.75
2023-01-29T19:42:44.802Z,101507.19
2023-01-29T19:45:11.459Z,101504.75
2023-01-29T19:47:38.877Z,101507.41
2023-01-29T19:50:06.587Z,101507.34
2023-01-29T19:52:51.060Z,101497.59
2023-01-29T19:55:19.671Z,101492.06
2023-01-29T19:57:46.347Z,101500.09
2023-01-29T20:00:14.065Z,101488.47
2023-01-29T20:02:40.598Z,101482.25
2023-01-29T20:05:07.965Z,101474.91
2023-01-29T20:07:35.808Z,101473.47
2023-01-29T20:10:02.352Z,101467.34
2023-01-29T20:12:28.860Z,101470.53
2023-01-29T20:14:55.418Z,101469.94
2023-01-29T20:17:21.943Z,101476.16
2023-01-29T20:19:48.547Z,101468.97
2023-01-29T20:22:15.112Z,101472.69
2023-01-29T20:24:42.902Z,101484.91
2023-01-29T20:27:09.932Z,101485.00
2023-01-29T20:29:36.999Z,101486.03
2023-01-29T20:32:03.923Z,101485.13
2023-01-29T20:34:30.897Z,101485.19
2023-01-29T20:36:57.496Z,101484.06
2023-01-29T20:39:24.028Z,101487.84
2023-01-29T20:41:51.964Z,101498.72
2023-01-29T20:44:18.520Z,101495.88
2023-01-29T20:46:45.507Z,101501.22
2023-01-29T20:49:12.026Z,101509.22
2023-01-29T20:51:38.714Z,101520.88
2023-01-29T20:54:05.436Z,101511.91
2023-01-29T20:56:38.162Z,101515.53
2023-01-29T20:59:11.231Z,101513.72
2023-01-29T21:01:37.755Z,101512.00
2023-01-29T21:04:04.260Z,101504.84
2023-01-29T21:06:31.177Z,101501.06
2023-01-29T21:08:57.680Z,101489.78
2023-01-29T21:11:24.546Z,101501.31
2023-01-29T21:13:51.085Z,101508.28
2023-01-29T21:16:18.933Z,101510.19
2023-01-29T21:18:45.449Z,101504.06
2023-01-29T21:21:11.918Z,101507.41
2023-01-29T21:23:38.518Z,101506.72
2023-01-29T21:26:06.521Z,101515.72
2023-01-29T21:28:33.580Z,101515.53
2023-01-29T21:31:05.283Z,101528.09
2023-01-29T21:33:33.405Z,101529.84
2023-01-29T21:36:00.360Z,101516.56
2023-01-29T21:38:27.211Z,101517.53
2023-01-29T21:40:59.240Z,101528.03
2023-01-29T21:43:25.720Z,101535.19
2023-01-29T21:45:55.417Z,101518.38
2023-01-29T21:48:22.000Z,101506.72
2023-01-29T21:50:49.979Z,101489.69
2023-01-29T21:53:16.658Z,101505.03
2023-01-29T21:55:43.293Z,101496.03
2023-01-29T21:58:10.377Z,101493.31
2023-01-29T22:00:37.186Z,101502.94
2023-01-29T22:03:04.254Z,101496.03
2023-01-29T22:05:30.873Z,101513.03
2023-01-29T22:07:58.732Z,101517.41
2023-01-29T22:10:25.629Z,101501.50
2023-01-29T22:12:52.277Z,101502.34
2023-01-29T22:15:18.757Z,101506.72
2023-01-29T22:17:45.266Z,101520.09
2023-01-29T22:20:13.409Z,101530.78
2023-01-29T22:22:39.936Z,101540.53
2023-01-29T22:25:08.528Z,101543.38
2023-01-29T22:27:35.261Z,101541.56
2023-01-29T22:30:02.168Z,101534.50
2023-01-29T22:32:28.790Z,101530.19
2023-01-29T22:34:55.408Z,101521.22
2023-01-29T22:37:22.120Z,101522.06
2023-01-29T22:39:48.617Z,101520.25
2023-01-29T22:42:18.732Z,101505.97
2023-01-29T22:44:45.231Z,101490.88
2023-01-29T22:47:11.716Z,101482.09
2023-01-29T22:49:38.225Z,101480.28
2023-01-29T22:52:05.065Z,101482.84
2023-01-29T22:54:31.592Z,101466.06
2023-01-29T22:56:58.089Z,101455.56
2023-01-29T22:59:26.080Z,101455.28
2023-01-29T23:01:52.741Z,101476.66
2023-01-29T23:04:19.324Z,101485.34
2023-01-29T23:06:45.816Z,101481.06
2023-01-29T23:09:12.411Z,101497.28
2023-01-29T23:11:38.907Z,101484.78
2023-01-29T23:14:05.445Z,101482.00
2023-01-29T23:16:33.278Z,101483.81
2023-01-29T23:18:59.791Z,101480.41
2023-01-29T23:21:26.581Z,101473.13
2023-01-29T23:23:53.101Z,101474.94
2023-01-29T23:26:19.732Z,101474.16
2023-01-29T23:28:46.605Z,101475.81
2023-01-29T23:31:13.714Z,101471.50
2023-01-29T23:33:42.054Z,101476.75
2023-01-29T23:36:08.939Z,101487.50
2023-01-29T23:38:35.539Z,101491.06
2023-01-29T23:41:02.049Z,101491.84
2023-01-29T23:43:29.863Z,101489.16
2023-01-29T23:45:56.927Z,101484.00
2023-01-29T23:48:23.838Z,101478.47
2023-01-29T23:50:51.661Z,101476.84
2023-01-29T23:53:18.399Z,101475.97
2023-01-29T23:55:55.803Z,101467.88
2023-01-29T23:58:22.322Z,101472.28
